Time,TemperatureF,DewpointF,PressureIn,WindDirection,WindDirectionDegrees,WindSpeedMPH,WindSpeedGustMPH,Humidity,HourlyPrecipIn,Conditions,Clouds,dailyrainin,SoftwareType,DateUTC
2013-05-22 00:01:00,56.6,55.5,29.75,NE,51,2.0,2.0,96,0.00,,,0.00,Wunderground v.1.15,2013-05-22 04:01:00,
2013-05-22 00:02:00,56.6,55.5,29.75,NE,51,0.0,2.0,96,0.00,,,0.00,Wunderground v.1.15,2013-05-22 04:02:00,
2013-05-22 00:03:00,56.6,55.5,29.76,NE,51,1.0,2.0,96,0.00,,,0.00,Wunderground v.1.15,2013-05-22 04:03:00,
2013-05-22 00:05:00,56.6,55.5,29.76,NE,51,0.0,2.0,96,0.00,,,0.00,Wunderground v.1.15,2013-05-22 04:05:00,
2013-05-22 00:10:00,56.5,55.4,29.76,NE,51,0.0,1.0,96,0.00,,,0.00,Wunderground v.1.15,2013-05-22 04:10:00,
2013-05-22 00:16:00,56.6,55.5,29.76,NE,51,2.0,3.0,96,0.00,,,0.00,Wunderground v.1.15,2013-05-22 04:16:00,
2013-05-22 00:21:00,56.7,55.6,29.77,NE,52,3.0,3.0,96,0.00,,,0.00,Wunderground v.1.15,2013-05-22 04:21:00,
2013-05-22 00:26:00,56.6,55.5,29.76,NE,52,1.0,3.0,96,0.00,,,0.00,Wunderground v.1.15,2013-05-22 04:26:00,
2013-05-22 00:31:00,56.6,55.5,29.76,NE,52,0.0,1.0,96,0.00,,,0.00,Wunderground v.1.15,2013-05-22 04:31:00,
2013-05-22 00:36:00,56.5,55.4,29.76,NE,52,0.0,2.0,96,0.00,,,0.00,Wunderground v.1.15,2013-05-22 04:36:00,
2013-05-22 00:42:00,56.5,55.4,29.76,NE,52,0.0,0.0,96,0.00,,,0.00,Wunderground v.1.15,2013-05-22 04:42:00,
2013-05-22 00:47:00,56.5,55.7,29.76,NE,52,0.0,1.0,97,0.00,,,0.00,Wunderground v.1.15,2013-05-22 04:47:00,
2013-05-22 00:52:00,56.5,55.7,29.76,NE,52,0.0,0.0,97,0.00,,,0.00,Wunderground v.1.15,2013-05-22 04:52:00,
2013-05-22 00:57:00,56.6,55.8,29.76,NE,52,0.0,0.0,97,0.00,,,0.00,Wunderground v.1.15,2013-05-22 04:57:00,
2013-05-22 01:02:00,56.7,55.9,29.76,NE,52,0.0,0.0,97,0.00,,,0.00,Wunderground v.1.15,2013-05-22 05:02:00,
2013-05-22 01:08:00,56.9,56.1,29.76,NE,52,0.0,0.0,97,0.00,,,0.00,Wunderground v.1.15,2013-05-22 05:08:00,
2013-05-22 01:13:00,57.1,56.3,29.76,NE,52,1.0,1.0,97,0.00,,,0.00,Wunderground v.1.15,2013-05-22 05:13:00,
2013-05-22 01:18:00,57.3,56.5,29.76,NE,52,0.0,1.0,97,0.00,,,0.00,Wunderground v.1.15,2013-05-22 05:18:00,
2013-05-22 01:24:00,57.5,56.7,29.76,NE,52,0.0,0.0,97,0.00,,,0.00,Wunderground v.1.15,2013-05-22 05:24:00,
2013-05-22 01:29:00,57.6,56.8,29.76,NE,52,0.0,0.0,97,0.00,,,0.00,Wunderground v.1.15,2013-05-22 05:29:00,
2013-05-22 01:34:00,57.7,56.9,29.76,NE,52,0.0,0.0,97,0.00,,,0.00,Wunderground v.1.15,2013-05-22 05:34:00,
2013-05-22 01:39:00,57.8,57.0,29.76,NE,52,0.0,0.0,97,0.00,,,0.00,Wunderground v.1.15,2013-05-22 05:39:00,
2013-05-22 01:45:00,57.9,57.3,29.76,NE,52,0.0,0.0,98,0.00,,,0.00,Wunderground v.1.15,2013-05-22 05:45:00,
2013-05-22 01:51:00,57.9,57.1,29.75,NE,52,0.0,0.0,97,0.00,,,0.00,Wunderground v.1.15,2013-05-22 05:51:00,
2013-05-22 01:56:00,57.9,57.1,29.75,NE,52,0.0,0.0,97,0.00,,,0.00,Wunderground v.1.15,2013-05-22 05:56:00,
2013-05-22 02:02:00,57.9,57.1,29.75,NE,52,0.0,0.0,97,0.00,,,0.00,Wunderground v.1.15,2013-05-22 06:02:00,
2013-05-22 02:07:00,57.9,57.1,29.75,NE,52,0.0,0.0,97,0.00,,,0.00,Wunderground v.1.15,2013-05-22 06:07:00,
2013-05-22 02:12:00,58.0,57.2,29.75,NE,52,0.0,0.0,97,0.00,,,0.00,Wunderground v.1.15,2013-05-22 06:12:00,
2013-05-22 02:17:00,58.1,57.3,29.75,NE,52,0.0,0.0,97,0.00,,,0.00,Wunderground v.1.15,2013-05-22 06:17:00,
2013-05-22 02:22:00,58.1,57.3,29.75,NE,52,0.0,0.0,97,0.00,,,0.00,Wunderground v.1.15,2013-05-22 06:22:00,
2013-05-22 02:27:00,58.2,57.6,29.75,NE,52,0.0,0.0,98,0.00,,,0.00,Wunderground v.1.15,2013-05-22 06:27:00,
2013-05-22 02:33:00,58.4,57.8,29.75,NE,52,0.0,0.0,98,0.00,,,0.00,Wunderground v.1.15,2013-05-22 06:33:00,
2013-05-22 02:38:00,58.4,57.8,29.75,NE,52,0.0,0.0,98,0.00,,,0.00,Wunderground v.1.15,2013-05-22 06:38:00,
2013-05-22 02:43:00,58.6,58.0,29.74,NE,52,0.0,0.0,98,0.00,,,0.00,Wunderground v.1.15,2013-05-22 06:43:00,
2013-05-22 02:48:00,58.9,58.3,29.74,NE,52,0.0,0.0,98,0.00,,,0.00,Wunderground v.1.15,2013-05-22 06:48:00,
2013-05-22 02:53:00,59.4,58.8,29.74,SSW,197,0.0,2.0,98,0.00,,,0.00,Wunderground v.1.15,2013-05-22 06:53:00,
2013-05-22 02:58:00,59.7,59.1,29.74,SSW,197,0.0,2.0,98,0.00,,,0.00,Wunderground v.1.15,2013-05-22 06:58:00,
2013-05-22 03:03:00,60.0,59.4,29.74,SSW,204,0.0,0.0,98,0.00,,,0.00,Wunderground v.1.15,2013-05-22 07:03:00,
2013-05-22 03:08:00,60.3,59.7,29.74,SSW,204,0.0,2.0,98,0.00,,,0.00,Wunderground v.1.15,2013-05-22 07:08:00,
2013-05-22 03:13:00,60.5,59.9,29.74,SSW,205,0.0,2.0,98,0.00,,,0.00,Wunderground v.1.15,2013-05-22 07:13:00,
2013-05-22 03:18:00,60.5,59.9,29.74,SSW,205,0.0,2.0,98,0.00,,,0.00,Wunderground v.1.15,2013-05-22 07:18:00,
2013-05-22 03:23:00,60.8,60.2,29.74,SSW,205,0.0,1.0,98,0.00,,,0.00,Wunderground v.1.15,2013-05-22 07:23:00,
2013-05-22 03:28:00,60.9,60.3,29.74,SSW,205,0.0,1.0,98,0.00,,,0.00,Wunderground v.1.15,2013-05-22 07:28:00,
2013-05-22 03:33:00,61.0,60.4,29.74,SSW,205,0.0,0.0,98,0.00,,,0.00,Wunderground v.1.15,2013-05-22 07:33:00,
2013-05-22 03:38:00,61.2,60.6,29.74,SSW,205,0.0,0.0,98,0.00,,,0.00,Wunderground v.1.15,2013-05-22 07:38:00,
2013-05-22 03:43:00,61.2,60.6,29.74,SSW,205,0.0,0.0,98,0.00,,,0.00,Wunderground v.1.15,2013-05-22 07:43:00,
2013-05-22 03:48:00,61.3,60.7,29.74,SSW,205,0.0,0.0,98,0.00,,,0.00,Wunderground v.1.15,2013-05-22 07:48:00,
2013-05-22 03:53:00,61.3,60.7,29.74,SSW,205,0.0,0.0,98,0.00,,,0.00,Wunderground v.1.15,2013-05-22 07:53:00,
2013-05-22 03:58:00,61.3,60.7,29.74,SSW,205,0.0,0.0,98,0.00,,,0.00,Wunderground v.1.15,2013-05-22 07:58:00,
2013-05-22 04:03:00,61.4,60.8,29.74,SSW,205,0.0,0.0,98,0.00,,,0.00,Wunderground v.1.15,2013-05-22 08:03:00,
2013-05-22 04:08:00,61.5,60.9,29.74,SSW,205,0.0,0.0,98,0.00,,,0.00,Wunderground v.1.15,2013-05-22 08:08:00,
2013-05-22 04:13:00,61.5,60.9,29.74,SSW,205,0.0,1.0,98,0.00,,,0.00,Wunderground v.1.15,2013-05-22 08:13:00,
2013-05-22 04:18:00,61.5,60.9,29.74,SSW,205,0.0,2.0,98,0.00,,,0.00,Wunderground v.1.15,2013-05-22 08:18:00,
2013-05-22 04:23:00,61.6,61.0,29.74,SSW,205,0.0,1.0,98,0.00,,,0.00,Wunderground v.1.15,2013-05-22 08:23:00,
2013-05-22 04:29:00,61.8,61.2,29.74,SSW,205,0.0,1.0,98,0.00,,,0.00,Wunderground v.1.15,2013-05-22 08:29:00,
2013-05-22 04:33:00,62.1,61.5,29.74,SSW,205,0.0,0.0,98,0.00,,,0.00,Wunderground v.1.15,2013-05-22 08:33:00,
2013-05-22 04:38:00,62.2,61.6,29.74,SSW,205,0.0,0.0,98,0.00,,,0.00,Wunderground v.1.15,2013-05-22 08:38:00,
2013-05-22 04:44:00,62.3,61.7,29.74,SSW,205,0.0,0.0,98,0.00,,,0.00,Wunderground v.1.15,2013-05-22 08:44:00,
2013-05-22 04:49:00,62.2,61.6,29.73,SSW,205,0.0,0.0,98,0.00,,,0.00,Wunderground v.1.15,2013-05-22 08:49:00,
2013-05-22 04:54:00,62.3,61.7,29.73,SSW,205,0.0,0.0,98,0.00,,,0.00,Wunderground v.1.15,2013-05-22 08:54:00,
2013-05-22 04:59:00,62.3,61.7,29.73,SSW,205,0.0,0.0,98,0.00,,,0.00,Wunderground v.1.15,2013-05-22 08:59:00,
2013-05-22 05:04:00,62.4,61.8,29.73,SSW,205,0.0,0.0,98,0.00,,,0.00,Wunderground v.1.15,2013-05-22 09:04:00,
2013-05-22 05:09:00,62.4,61.8,29.73,SSW,205,0.0,0.0,98,0.00,,,0.00,Wunderground v.1.15,2013-05-22 09:09:00,
2013-05-22 05:14:00,62.3,61.7,29.73,SSW,205,0.0,0.0,98,0.00,,,0.00,Wunderground v.1.15,2013-05-22 09:14:00,
2013-05-22 05:19:00,62.2,61.6,29.73,SSW,205,0.0,0.0,98,0.00,,,0.00,Wunderground v.1.15,2013-05-22 09:19:00,
2013-05-22 05:24:00,62.2,61.6,29.73,SSW,205,0.0,0.0,98,0.00,,,0.00,Wunderground v.1.15,2013-05-22 09:24:00,
2013-05-22 05:29:00,62.2,61.6,29.73,SSW,205,0.0,0.0,98,0.00,,,0.00,Wunderground v.1.15,2013-05-22 09:29:00,
2013-05-22 05:34:00,62.2,61.6,29.73,SSW,205,0.0,0.0,98,0.00,,,0.00,Wunderground v.1.15,2013-05-22 09:34:00,
2013-05-22 05:39:00,62.3,61.7,29.73,SSW,205,0.0,0.0,98,0.00,,,0.00,Wunderground v.1.15,2013-05-22 09:39:00,
2013-05-22 05:44:00,62.4,61.8,29.73,SSW,205,0.0,0.0,98,0.00,,,0.00,Wunderground v.1.15,2013-05-22 09:44:00,
2013-05-22 05:49:00,62.3,61.7,29.73,SSW,205,0.0,0.0,98,0.00,,,0.00,Wunderground v.1.15,2013-05-22 09:49:00,
2013-05-22 05:54:00,62.4,61.8,29.73,SSW,205,0.0,0.0,98,0.00,,,0.00,Wunderground v.1.15,2013-05-22 09:54:00,
2013-05-22 05:59:00,62.3,61.7,29.73,SSW,205,0.0,0.0,98,0.00,,,0.00,Wunderground v.1.15,2013-05-22 09:59:00,
2013-05-22 06:04:00,62.4,61.8,29.73,SSW,205,0.0,0.0,98,0.00,,,0.00,Wunderground v.1.15,2013-05-22 10:04:00,
2013-05-22 06:09:00,62.4,61.8,29.73,SSW,205,0.0,0.0,98,0.00,,,0.00,Wunderground v.1.15,2013-05-22 10:09:00,
2013-05-22 06:14:00,62.5,61.9,29.73,SSW,205,0.0,0.0,98,0.00,,,0.00,Wunderground v.1.15,2013-05-22 10:14:00,
2013-05-22 06:19:00,62.6,62.0,29.73,SSW,205,0.0,0.0,98,0.00,,,0.00,Wunderground v.1.15,2013-05-22 10:19:00,
2013-05-22 06:24:00,62.8,62.2,29.73,SSW,205,0.0,0.0,98,0.00,,,0.00,Wunderground v.1.15,2013-05-22 10:24:00,
2013-05-22 06:30:00,63.0,62.7,29.73,SSW,205,0.0,0.0,99,0.00,,,0.00,Wunderground v.1.15,2013-05-22 10:30:00,
2013-05-22 06:35:00,63.1,62.8,29.74,SSW,205,0.0,0.0,99,0.00,,,0.00,Wunderground v.1.15,2013-05-22 10:35:00,
2013-05-22 06:40:00,63.2,62.9,29.74,SSW,205,0.0,3.0,99,0.00,,,0.00,Wunderground v.1.15,2013-05-22 10:40:00,
2013-05-22 06:45:00,63.4,63.1,29.74,SSW,205,0.0,1.0,99,0.00,,,0.00,Wunderground v.1.15,2013-05-22 10:45:00,
2013-05-22 06:50:00,63.6,63.3,29.74,South,169,0.0,3.0,99,0.00,,,0.00,Wunderground v.1.15,2013-05-22 10:50:00,
2013-05-22 06:55:00,63.7,63.4,29.74,South,169,0.0,0.0,99,0.00,,,0.00,Wunderground v.1.15,2013-05-22 10:55:00,
2013-05-22 07:00:00,63.9,63.6,29.74,South,169,0.0,0.0,99,0.00,,,0.00,Wunderground v.1.15,2013-05-22 11:00:00,
2013-05-22 07:05:00,64.0,63.7,29.74,South,169,0.0,0.0,99,0.00,,,0.00,Wunderground v.1.15,2013-05-22 11:05:00,
2013-05-22 07:10:00,64.1,63.8,29.74,South,169,0.0,1.0,99,0.00,,,0.00,Wunderground v.1.15,2013-05-22 11:10:00,
2013-05-22 07:15:00,64.3,64.0,29.74,South,169,0.0,0.0,99,0.00,,,0.00,Wunderground v.1.15,2013-05-22 11:15:00,
2013-05-22 07:20:00,64.4,64.1,29.74,South,169,0.0,0.0,99,0.00,,,0.00,Wunderground v.1.15,2013-05-22 11:20:00,
2013-05-22 07:25:00,64.6,64.3,29.74,South,169,0.0,1.0,99,0.00,,,0.00,Wunderground v.1.15,2013-05-22 11:25:00,
2013-05-22 07:30:00,64.7,64.4,29.74,South,169,0.0,1.0,99,0.00,,,0.00,Wunderground v.1.15,2013-05-22 11:30:00,
2013-05-22 07:35:00,64.9,64.6,29.74,South,169,0.0,0.0,99,0.00,,,0.00,Wunderground v.1.15,2013-05-22 11:35:00,
2013-05-22 07:40:00,65.1,64.8,29.75,South,169,0.0,0.0,99,0.00,,,0.00,Wunderground v.1.15,2013-05-22 11:40:00,
2013-05-22 07:45:00,65.2,64.9,29.75,South,169,0.0,0.0,99,0.00,,,0.00,Wunderground v.1.15,2013-05-22 11:45:00,
2013-05-22 07:50:00,65.4,65.1,29.74,South,169,0.0,0.0,99,0.00,,,0.00,Wunderground v.1.15,2013-05-22 11:50:00,
2013-05-22 07:55:00,65.7,65.4,29.74,South,169,0.0,0.0,99,0.00,,,0.00,Wunderground v.1.15,2013-05-22 11:55:00,
2013-05-22 08:00:00,65.9,65.6,29.74,South,169,0.0,0.0,99,0.00,,,0.00,Wunderground v.1.15,2013-05-22 12:00:00,
2013-05-22 08:05:00,66.2,65.9,29.74,South,169,0.0,0.0,99,0.00,,,0.00,Wunderground v.1.15,2013-05-22 12:05:00,
2013-05-22 08:10:00,66.4,66.1,29.74,South,169,0.0,0.0,99,0.00,,,0.00,Wunderground v.1.15,2013-05-22 12:10:00,
2013-05-22 08:15:00,66.6,66.3,29.75,South,169,0.0,0.0,99,0.00,,,0.00,Wunderground v.1.15,2013-05-22 12:15:00,
2013-05-22 08:20:00,66.8,66.5,29.75,South,169,0.0,0.0,99,0.00,,,0.00,Wunderground v.1.15,2013-05-22 12:20:00,
2013-05-22 08:25:00,66.9,66.6,29.75,South,169,0.0,2.0,99,0.00,,,0.00,Wunderground v.1.15,2013-05-22 12:25:00,
2013-05-22 08:30:00,67.1,66.8,29.75,South,169,0.0,0.0,99,0.00,,,0.00,Wunderground v.1.15,2013-05-22 12:30:00,
2013-05-22 08:35:00,67.2,66.9,29.75,South,169,0.0,0.0,99,0.00,,,0.00,Wunderground v.1.15,2013-05-22 12:35:00,
2013-05-22 08:40:00,67.2,66.9,29.75,South,169,0.0,0.0,99,0.00,,,0.00,Wunderground v.1.15,2013-05-22 12:40:00,
2013-05-22 08:45:00,67.3,67.0,29.75,South,169,0.0,0.0,99,0.00,,,0.00,Wunderground v.1.15,2013-05-22 12:45:00,
2013-05-22 08:50:00,67.3,67.0,29.75,South,169,0.0,0.0,99,0.00,,,0.00,Wunderground v.1.15,2013-05-22 12:50:00,
2013-05-22 08:56:00,67.4,67.1,29.75,South,169,0.0,1.0,99,0.00,,,0.00,Wunderground v.1.15,2013-05-22 12:56:00,
2013-05-22 09:01:00,67.4,67.1,29.75,South,169,0.0,0.0,99,0.00,,,0.00,Wunderground v.1.15,2013-05-22 13:01:00,
2013-05-22 09:06:00,67.5,67.2,29.75,South,169,0.0,0.0,99,0.00,,,0.00,Wunderground v.1.15,2013-05-22 13:06:00,
2013-05-22 09:11:00,67.8,67.5,29.75,South,169,0.0,0.0,99,0.00,,,0.00,Wunderground v.1.15,2013-05-22 13:11:00,
2013-05-22 09:16:00,67.9,67.6,29.75,South,169,0.0,3.0,99,0.00,,,0.00,Wunderground v.1.15,2013-05-22 13:16:00,
2013-05-22 09:21:00,68.1,67.8,29.75,South,169,0.0,0.0,99,0.00,,,0.00,Wunderground v.1.15,2013-05-22 13:21:00,
2013-05-22 09:26:00,68.3,68.0,29.75,South,169,0.0,1.0,99,0.00,,,0.00,Wunderground v.1.15,2013-05-22 13:26:00,
2013-05-22 09:31:00,68.3,68.0,29.75,SW,223,0.0,0.0,99,0.00,,,0.00,Wunderground v.1.15,2013-05-22 13:31:00,
2013-05-22 09:36:00,68.5,68.2,29.75,NW,315,0.0,3.0,99,0.00,,,0.00,Wunderground v.1.15,2013-05-22 13:36:00,
2013-05-22 09:41:00,68.7,68.4,29.75,SW,223,2.0,2.0,99,0.00,,,0.00,Wunderground v.1.15,2013-05-22 13:41:00,
2013-05-22 09:46:00,68.8,68.5,29.75,SSW,208,0.0,4.0,99,0.00,,,0.00,Wunderground v.1.15,2013-05-22 13:46:00,
2013-05-22 09:51:00,69.0,68.4,29.75,WSW,238,1.0,1.0,98,0.00,,,0.00,Wunderground v.1.15,2013-05-22 13:51:00,
2013-05-22 09:56:00,69.3,68.7,29.75,SW,225,0.0,3.0,98,0.00,,,0.00,Wunderground v.1.15,2013-05-22 13:56:00,
2013-05-22 10:01:00,69.7,69.1,29.75,SSW,198,0.0,1.0,98,0.00,,,0.00,Wunderground v.1.15,2013-05-22 14:01:00,
2013-05-22 10:06:00,70.0,69.1,29.75,SW,217,1.0,2.0,97,0.00,,,0.00,Wunderground v.1.15,2013-05-22 14:06:00,
2013-05-22 10:11:00,70.6,69.7,29.75,SW,218,0.0,1.0,97,0.00,,,0.00,Wunderground v.1.15,2013-05-22 14:11:00,
2013-05-22 10:16:00,70.9,69.4,29.75,WSW,250,0.0,4.0,95,0.00,,,0.00,Wunderground v.1.15,2013-05-22 14:16:00,
2013-05-22 10:21:00,71.2,69.1,29.75,WSW,250,3.0,6.0,93,0.00,,,0.00,Wunderground v.1.15,2013-05-22 14:21:00,
2013-05-22 10:26:00,71.7,68.9,29.74,South,187,2.0,6.0,91,0.00,,,0.00,Wunderground v.1.15,2013-05-22 14:26:00,
2013-05-22 10:31:00,72.3,69.8,29.74,WSW,255,2.0,3.0,92,0.00,,,0.00,Wunderground v.1.15,2013-05-22 14:31:00,
2013-05-22 10:36:00,72.9,69.8,29.75,WNW,287,2.0,3.0,90,0.00,,,0.00,Wunderground v.1.15,2013-05-22 14:36:00,
2013-05-22 10:41:00,73.3,69.5,29.75,South,189,0.0,2.0,88,0.00,,,0.00,Wunderground v.1.15,2013-05-22 14:41:00,
2013-05-22 10:46:00,73.8,70.0,29.75,SSW,193,0.0,2.0,88,0.00,,,0.00,Wunderground v.1.15,2013-05-22 14:46:00,
2013-05-22 10:51:00,74.0,69.5,29.74,WSW,252,4.0,7.0,86,0.00,,,0.00,Wunderground v.1.15,2013-05-22 14:51:00,
2013-05-22 10:56:00,74.0,69.2,29.75,South,177,1.0,7.0,85,0.00,,,0.00,Wunderground v.1.15,2013-05-22 14:56:00,
2013-05-22 11:02:00,74.1,69.6,29.75,South,169,0.0,4.0,86,0.00,,,0.00,Wunderground v.1.15,2013-05-22 15:02:00,
2013-05-22 11:07:00,74.8,70.0,29.75,West,275,2.0,5.0,85,0.00,,,0.00,Wunderground v.1.15,2013-05-22 15:07:00,
2013-05-22 11:12:00,75.7,69.8,29.75,South,174,3.0,8.0,82,0.00,,,0.00,Wunderground v.1.15,2013-05-22 15:12:00,
2013-05-22 11:17:00,76.6,70.3,29.74,WNW,283,5.0,8.0,81,0.00,,,0.00,Wunderground v.1.15,2013-05-22 15:17:00,
2013-05-22 11:22:00,77.4,70.0,29.74,West,263,3.0,4.0,78,0.00,,,0.00,Wunderground v.1.15,2013-05-22 15:22:00,
2013-05-22 11:27:00,78.1,71.1,29.74,WNW,284,1.0,8.0,79,0.00,,,0.00,Wunderground v.1.15,2013-05-22 15:27:00,
2013-05-22 11:32:00,78.7,70.9,29.74,WSW,243,6.0,6.0,77,0.00,,,0.00,Wunderground v.1.15,2013-05-22 15:32:00,
2013-05-22 11:37:00,79.1,69.3,29.74,South,186,2.0,11.0,72,0.00,,,0.00,Wunderground v.1.15,2013-05-22 15:37:00,
2013-05-22 11:42:00,79.4,70.8,29.74,South,169,4.0,7.0,75,0.00,,,0.00,Wunderground v.1.15,2013-05-22 15:42:00,
2013-05-22 11:47:00,79.7,70.3,29.74,SW,230,3.0,7.0,73,0.00,,,0.00,Wunderground v.1.15,2013-05-22 15:47:00,
2013-05-22 11:52:00,80.0,70.2,29.74,SSW,213,1.0,5.0,72,0.00,,,0.00,Wunderground v.1.15,2013-05-22 15:52:00,
2013-05-22 11:57:00,80.6,70.3,29.74,South,188,1.0,7.0,71,0.00,,,0.00,Wunderground v.1.15,2013-05-22 15:57:00,
2013-05-22 12:02:00,81.0,70.3,29.74,SSW,196,1.0,8.0,70,0.00,,,0.00,Wunderground v.1.15,2013-05-22 16:02:00,
2013-05-22 12:07:00,81.2,70.1,29.74,SW,221,5.0,8.0,69,0.00,,,0.00,Wunderground v.1.15,2013-05-22 16:07:00,
2013-05-22 12:12:00,81.3,70.6,29.74,West,259,2.0,7.0,70,0.00,,,0.00,Wunderground v.1.15,2013-05-22 16:12:00,
2013-05-22 12:17:00,81.5,69.9,29.73,WSW,240,4.0,8.0,68,0.00,,,0.00,Wunderground v.1.15,2013-05-22 16:17:00,
2013-05-22 12:22:00,81.5,70.3,29.73,SW,216,2.0,6.0,69,0.00,,,0.00,Wunderground v.1.15,2013-05-22 16:22:00,
2013-05-22 12:27:00,81.9,69.9,29.73,SW,223,4.0,6.0,67,0.00,,,0.00,Wunderground v.1.15,2013-05-22 16:27:00,
2013-05-22 12:32:00,82.0,70.8,29.73,WSW,249,3.0,3.0,69,0.00,,,0.00,Wunderground v.1.15,2013-05-22 16:32:00,
2013-05-22 12:37:00,82.2,70.6,29.73,West,281,5.0,7.0,68,0.00,,,0.00,Wunderground v.1.15,2013-05-22 16:37:00,
2013-05-22 12:42:00,82.3,70.2,29.73,WSW,244,3.0,8.0,67,0.00,,,0.00,Wunderground v.1.15,2013-05-22 16:42:00,
2013-05-22 12:47:00,82.5,70.0,29.73,SE,136,8.0,8.0,66,0.00,,,0.00,Wunderground v.1.15,2013-05-22 16:47:00,
2013-05-22 12:52:00,82.9,70.8,29.72,West,259,2.0,4.0,67,0.00,,,0.00,Wunderground v.1.15,2013-05-22 16:52:00,
2013-05-22 12:57:00,83.1,70.6,29.72,WNW,295,3.0,7.0,66,0.00,,,0.00,Wunderground v.1.15,2013-05-22 16:57:00,
2013-05-22 13:02:00,83.3,71.6,29.72,WNW,296,2.0,4.0,68,0.00,,,0.00,Wunderground v.1.15,2013-05-22 17:02:00,
2013-05-22 13:07:00,83.6,70.6,29.72,SSW,211,5.0,7.0,65,0.00,,,0.00,Wunderground v.1.15,2013-05-22 17:07:00,
2013-05-22 13:12:00,83.6,71.0,29.72,WSW,256,2.0,8.0,66,0.00,,,0.00,Wunderground v.1.15,2013-05-22 17:12:00,
2013-05-22 13:17:00,84.5,71.0,29.72,SSE,151,7.0,8.0,64,0.00,,,0.00,Wunderground v.1.15,2013-05-22 17:17:00,
2013-05-22 13:22:00,84.8,71.3,29.72,South,180,2.0,5.0,64,0.00,,,0.00,Wunderground v.1.15,2013-05-22 17:22:00,
2013-05-22 13:28:00,84.7,71.2,29.71,NNE,15,2.0,6.0,64,0.00,,,0.00,Wunderground v.1.15,2013-05-22 17:28:00,
2013-05-22 13:32:00,85.0,70.5,29.72,SE,139,5.0,7.0,62,0.00,,,0.00,Wunderground v.1.15,2013-05-22 17:32:00,
2013-05-22 13:38:00,85.1,70.6,29.71,SSW,207,4.0,7.0,62,0.00,,,0.00,Wunderground v.1.15,2013-05-22 17:38:00,
2013-05-22 13:43:00,85.0,70.5,29.71,West,281,3.0,5.0,62,0.00,,,0.00,Wunderground v.1.15,2013-05-22 17:43:00,
2013-05-22 13:48:00,84.8,70.3,29.71,SW,225,1.0,7.0,62,0.00,,,0.00,Wunderground v.1.15,2013-05-22 17:48:00,
2013-05-22 13:53:00,84.8,69.4,29.70,SSW,194,4.0,6.0,60,0.00,,,0.00,Wunderground v.1.15,2013-05-22 17:53:00,
2013-05-22 13:58:00,84.8,69.9,29.70,NNW,333,7.0,8.0,61,0.00,,,0.00,Wunderground v.1.15,2013-05-22 17:58:00,
2013-05-22 14:03:00,85.6,71.6,29.70,North,9,2.0,7.0,63,0.00,,,0.00,Wunderground v.1.15,2013-05-22 18:03:00,
2013-05-22 14:08:00,85.4,70.4,29.70,NNE,16,5.0,7.0,61,0.00,,,0.00,Wunderground v.1.15,2013-05-22 18:08:00,
2013-05-22 14:13:00,84.7,70.2,29.69,North,5,8.0,10.0,62,0.00,,,0.00,Wunderground v.1.15,2013-05-22 18:13:00,
2013-05-22 14:18:00,83.2,69.3,29.69,North,360,5.0,11.0,63,0.00,,,0.00,Wunderground v.1.15,2013-05-22 18:18:00,
2013-05-22 14:23:00,81.5,69.0,29.70,NNW,340,3.0,6.0,66,0.00,,,0.00,Wunderground v.1.15,2013-05-22 18:23:00,
2013-05-22 14:28:00,79.3,68.2,29.71,SW,215,0.0,6.0,69,0.00,,,0.00,Wunderground v.1.15,2013-05-22 18:28:00,
2013-05-22 14:33:00,78.2,68.4,29.71,SSW,195,5.0,10.0,72,0.00,,,0.00,Wunderground v.1.15,2013-05-22 18:33:00,
2013-05-22 14:38:00,77.2,65.8,29.70,ESE,115,0.0,10.0,68,0.00,,,0.00,Wunderground v.1.15,2013-05-22 18:38:00,
2013-05-22 14:43:00,76.5,65.6,29.71,East,100,1.0,3.0,69,0.00,,,0.00,Wunderground v.1.15,2013-05-22 18:43:00,
2013-05-22 14:48:00,75.9,65.0,29.71,NW,307,1.0,3.0,69,0.00,,,0.00,Wunderground v.1.15,2013-05-22 18:48:00,
2013-05-22 14:53:00,76.5,66.0,29.70,NE,39,3.0,5.0,70,0.00,,,0.00,Wunderground v.1.15,2013-05-22 18:53:00,
2013-05-22 14:58:00,77.8,67.6,29.70,North,5,0.0,5.0,71,0.00,,,0.00,Wunderground v.1.15,2013-05-22 18:58:00,
2013-05-22 15:03:00,79.2,68.1,29.70,North,11,4.0,4.0,69,0.00,,,0.00,Wunderground v.1.15,2013-05-22 19:03:00,
2013-05-22 15:08:00,80.7,69.6,29.70,North,5,5.0,8.0,69,0.00,,,0.00,Wunderground v.1.15,2013-05-22 19:08:00,
2013-05-22 15:13:00,81.6,70.0,29.69,East,84,1.0,5.0,68,0.00,,,0.00,Wunderground v.1.15,2013-05-22 19:13:00,
2013-05-22 15:18:00,82.6,69.6,29.69,North,5,5.0,6.0,65,0.00,,,0.00,Wunderground v.1.15,2013-05-22 19:18:00,
2013-05-22 15:24:00,83.6,70.1,29.69,NNE,21,1.0,6.0,64,0.00,,,0.00,Wunderground v.1.15,2013-05-22 19:24:00,
2013-05-22 15:29:00,84.5,70.0,29.68,North,11,3.0,6.0,62,0.00,,,0.00,Wunderground v.1.15,2013-05-22 19:29:00,
2013-05-22 15:34:00,85.1,69.7,29.68,North,5,5.0,7.0,60,0.00,,,0.00,Wunderground v.1.15,2013-05-22 19:34:00,
2013-05-22 15:39:00,85.6,70.6,29.68,NNE,18,5.0,7.0,61,0.00,,,0.00,Wunderground v.1.15,2013-05-22 19:39:00,
2013-05-22 15:44:00,86.2,70.7,29.68,North,11,3.0,5.0,60,0.00,,,0.00,Wunderground v.1.15,2013-05-22 19:44:00,
2013-05-22 15:49:00,86.6,70.1,29.68,NNE,18,7.0,9.0,58,0.00,,,0.00,Wunderground v.1.15,2013-05-22 19:49:00,
2013-05-22 15:54:00,86.5,70.5,29.68,East,82,3.0,8.0,59,0.00,,,0.00,Wunderground v.1.15,2013-05-22 19:54:00,
2013-05-22 15:59:00,86.8,70.2,29.68,NNE,15,5.0,8.0,58,0.00,,,0.00,Wunderground v.1.15,2013-05-22 19:59:00,
2013-05-22 16:04:00,87.1,69.5,29.68,NNE,17,7.0,8.0,56,0.00,,,0.00,Wunderground v.1.15,2013-05-22 20:04:00,
2013-05-22 16:09:00,87.3,69.7,29.68,North,11,4.0,8.0,56,0.00,,,0.00,Wunderground v.1.15,2013-05-22 20:09:00,
2013-05-22 16:14:00,87.7,70.1,29.68,NW,324,5.0,7.0,56,0.00,,,0.00,Wunderground v.1.15,2013-05-22 20:14:00,
2013-05-22 16:19:00,87.5,69.9,29.68,NNE,15,9.0,9.0,56,0.00,,,0.00,Wunderground v.1.15,2013-05-22 20:19:00,
2013-05-22 16:24:00,87.3,69.7,29.67,North,11,5.0,9.0,56,0.00,,,0.00,Wunderground v.1.15,2013-05-22 20:24:00,
2013-05-22 16:29:00,86.8,69.7,29.67,East,91,3.0,9.0,57,0.00,,,0.00,Wunderground v.1.15,2013-05-22 20:29:00,
2013-05-22 16:34:00,86.4,69.4,29.67,North,5,7.0,9.0,57,0.00,,,0.00,Wunderground v.1.15,2013-05-22 20:34:00,
2013-05-22 16:39:00,86.1,69.6,29.67,North,10,5.0,10.0,58,0.00,,,0.00,Wunderground v.1.15,2013-05-22 20:39:00,
2013-05-22 16:44:00,86.0,69.5,29.66,North,5,3.0,10.0,58,0.00,,,0.00,Wunderground v.1.15,2013-05-22 20:44:00,
2013-05-22 16:49:00,85.5,69.0,29.66,NNE,23,8.0,12.0,58,0.00,,,0.00,Wunderground v.1.15,2013-05-22 20:49:00,
2013-05-22 16:54:00,85.2,68.8,29.66,North,9,6.0,8.0,58,0.00,,,0.00,Wunderground v.1.15,2013-05-22 20:54:00,
2013-05-22 16:59:00,85.2,70.2,29.66,ENE,75,7.0,9.0,61,0.00,,,0.00,Wunderground v.1.15,2013-05-22 20:59:00,
2013-05-22 17:04:00,85.4,70.4,29.65,ENE,70,10.0,10.0,61,0.00,,,0.00,Wunderground v.1.15,2013-05-22 21:04:00,
2013-05-22 17:09:00,85.2,70.2,29.65,East,89,6.0,10.0,61,0.00,,,0.00,Wunderground v.1.15,2013-05-22 21:09:00,
2013-05-22 17:14:00,85.2,70.2,29.65,ENE,76,3.0,7.0,61,0.00,,,0.00,Wunderground v.1.15,2013-05-22 21:14:00,
2013-05-22 17:19:00,85.3,69.8,29.65,East,80,6.0,9.0,60,0.00,,,0.00,Wunderground v.1.15,2013-05-22 21:19:00,
2013-05-22 17:24:00,84.6,71.5,29.65,East,80,1.0,7.0,65,0.00,,,0.00,Wunderground v.1.15,2013-05-22 21:24:00,
2013-05-22 17:29:00,83.6,72.3,29.65,ENE,74,2.0,8.0,69,0.00,,,0.01,Wunderground v.1.15,2013-05-22 21:29:00,
2013-05-22 17:34:00,83.1,74.4,29.64,ENE,70,7.0,8.0,75,0.00,,,0.01,Wunderground v.1.15,2013-05-22 21:34:00,
2013-05-22 17:39:00,82.7,74.8,29.64,East,94,2.0,8.0,77,0.00,,,0.01,Wunderground v.1.15,2013-05-22 21:39:00,
2013-05-22 17:44:00,82.4,74.1,29.63,ESE,105,2.0,8.0,76,0.00,,,0.01,Wunderground v.1.15,2013-05-22 21:44:00,
2013-05-22 17:49:00,81.9,73.6,29.63,ENE,58,4.0,8.0,76,0.00,,,0.01,Wunderground v.1.15,2013-05-22 21:49:00,
2013-05-22 17:54:00,82.1,73.8,29.63,East,79,6.0,7.0,76,0.00,,,0.01,Wunderground v.1.15,2013-05-22 21:54:00,
2013-05-22 17:59:00,82.4,73.7,29.63,ENE,63,1.0,8.0,75,0.00,,,0.01,Wunderground v.1.15,2013-05-22 21:59:00,
2013-05-22 18:04:00,82.8,73.7,29.62,ENE,69,4.0,7.0,74,0.00,,,0.01,Wunderground v.1.15,2013-05-22 22:04:00,
2013-05-22 18:09:00,83.1,73.5,29.63,East,84,5.0,7.0,73,0.00,,,0.01,Wunderground v.1.15,2013-05-22 22:09:00,
2013-05-22 18:14:00,83.5,73.9,29.62,East,82,5.0,7.0,73,0.00,,,0.01,Wunderground v.1.15,2013-05-22 22:14:00,
2013-05-22 18:19:00,83.8,73.8,29.62,ENE,77,2.0,7.0,72,0.00,,,0.01,Wunderground v.1.15,2013-05-22 22:19:00,
2013-05-22 18:24:00,84.3,73.9,29.62,East,80,3.0,7.0,71,0.00,,,0.01,Wunderground v.1.15,2013-05-22 22:24:00,
2013-05-22 18:29:00,84.7,73.0,29.61,ENE,77,3.0,7.0,68,0.00,,,0.01,Wunderground v.1.15,2013-05-22 22:29:00,
2013-05-22 18:34:00,84.9,72.3,29.61,East,88,1.0,7.0,66,0.00,,,0.01,Wunderground v.1.15,2013-05-22 22:34:00,
2013-05-22 18:39:00,84.7,73.8,29.61,ENE,71,0.0,7.0,70,0.00,,,0.01,Wunderground v.1.15,2013-05-22 22:39:00,
2013-05-22 18:44:00,84.5,72.8,29.61,ENE,74,2.0,5.0,68,0.00,,,0.01,Wunderground v.1.15,2013-05-22 22:44:00,
2013-05-22 18:49:00,84.2,72.5,29.61,East,93,3.0,5.0,68,0.00,,,0.01,Wunderground v.1.15,2013-05-22 22:49:00,
2013-05-22 18:54:00,83.6,71.9,29.61,ESE,113,2.0,3.0,68,0.00,,,0.01,Wunderground v.1.15,2013-05-22 22:54:00,
2013-05-22 18:59:00,83.0,71.3,29.61,South,177,3.0,4.0,68,0.00,,,0.01,Wunderground v.1.15,2013-05-22 22:59:00,
2013-05-22 19:04:00,82.3,71.5,29.61,ESE,119,0.0,6.0,70,0.00,,,0.01,Wunderground v.1.15,2013-05-22 23:04:00,
2013-05-22 19:10:00,81.7,71.8,29.61,SE,126,3.0,6.0,72,0.00,,,0.01,Wunderground v.1.15,2013-05-22 23:10:00,
2013-05-22 19:15:00,81.2,72.1,29.60,ENE,59,3.0,7.0,74,0.00,,,0.01,Wunderground v.1.15,2013-05-22 23:15:00,
2013-05-22 19:20:00,80.6,71.9,29.60,East,98,6.0,9.0,75,0.00,,,0.01,Wunderground v.1.15,2013-05-22 23:20:00,
2013-05-22 19:25:00,80.1,71.1,29.60,South,188,1.0,6.0,74,0.00,,,0.01,Wunderground v.1.15,2013-05-22 23:25:00,
2013-05-22 19:30:00,79.7,70.7,29.60,South,175,0.0,8.0,74,0.00,,,0.01,Wunderground v.1.15,2013-05-22 23:30:00,
2013-05-22 19:35:00,79.4,70.4,29.60,East,94,1.0,7.0,74,0.00,,,0.01,Wunderground v.1.15,2013-05-22 23:35:00,
2013-05-22 19:40:00,79.0,70.0,29.60,East,101,5.0,7.0,74,0.00,,,0.01,Wunderground v.1.15,2013-05-22 23:40:00,
2013-05-22 19:45:00,78.6,69.6,29.60,ESE,115,3.0,6.0,74,0.00,,,0.02,Wunderground v.1.15,2013-05-22 23:45:00,
2013-05-22 19:50:00,78.3,69.7,29.60,SE,134,2.0,6.0,75,0.00,,,0.02,Wunderground v.1.15,2013-05-22 23:50:00,
2013-05-22 19:55:00,77.9,69.3,29.60,ENE,70,0.0,5.0,75,0.00,,,0.02,Wunderground v.1.15,2013-05-22 23:55:00,
2013-05-22 20:00:00,77.5,69.3,29.60,SE,128,0.0,5.0,76,0.00,,,0.02,Wunderground v.1.15,2013-05-23 00:00:00,
2013-05-22 20:05:00,77.3,69.5,29.60,SSW,193,0.0,2.0,77,0.00,,,0.02,Wunderground v.1.15,2013-05-23 00:05:00,
2013-05-22 20:10:00,76.9,69.5,29.59,ESE,105,3.0,7.0,78,0.00,,,0.02,Wunderground v.1.15,2013-05-23 00:10:00,
2013-05-22 20:15:00,76.6,69.6,29.59,SW,219,0.0,3.0,79,0.00,,,0.02,Wunderground v.1.15,2013-05-23 00:15:00,
2013-05-22 20:20:00,76.4,69.4,29.59,ESE,106,0.0,1.0,79,0.00,,,0.02,Wunderground v.1.15,2013-05-23 00:20:00,
2013-05-22 20:25:00,76.2,69.6,29.59,SW,227,1.0,4.0,80,0.00,,,0.02,Wunderground v.1.15,2013-05-23 00:25:00,
2013-05-22 20:30:00,76.1,69.5,29.60,West,281,4.0,4.0,80,0.00,,,0.02,Wunderground v.1.15,2013-05-23 00:30:00,
2013-05-22 20:35:00,76.1,69.5,29.61,NW,325,4.0,8.0,80,0.00,,,0.02,Wunderground v.1.15,2013-05-23 00:35:00,
2013-05-22 20:40:00,76.1,69.5,29.61,NW,309,3.0,4.0,80,0.00,,,0.02,Wunderground v.1.15,2013-05-23 00:40:00,
2013-05-22 20:45:00,75.9,68.5,29.63,NW,307,3.0,7.0,78,0.00,,,0.02,Wunderground v.1.15,2013-05-23 00:45:00,
2013-05-22 20:50:00,75.5,68.5,29.64,West,259,3.0,5.0,79,0.00,,,0.02,Wunderground v.1.15,2013-05-23 00:50:00,
2013-05-22 20:55:00,74.4,67.8,29.65,SSW,203,4.0,18.0,80,1.70,,,0.06,Wunderground v.1.15,2013-05-23 00:55:00,
2013-05-22 21:00:00,72.4,68.0,29.66,West,273,5.0,6.0,86,0.14,,,0.07,Wunderground v.1.15,2013-05-23 01:00:00,
2013-05-22 21:05:00,71.3,67.6,29.66,West,275,3.0,6.0,88,0.46,,,0.09,Wunderground v.1.15,2013-05-23 01:05:00,
2013-05-22 21:10:00,70.5,67.4,29.66,NW,322,6.0,8.0,90,2.64,,,0.16,Wunderground v.1.15,2013-05-23 01:10:00,
2013-05-22 21:15:00,69.9,66.5,29.66,WNW,288,3.0,17.0,89,0.73,,,0.26,Wunderground v.1.15,2013-05-23 01:15:00,
2013-05-22 21:20:00,69.4,66.7,29.66,West,280,6.0,7.0,91,0.39,,,0.33,Wunderground v.1.15,2013-05-23 01:20:00,
2013-05-22 21:25:00,69.0,66.3,29.65,West,265,1.0,8.0,91,0.15,,,0.34,Wunderground v.1.15,2013-05-23 01:25:00,
2013-05-22 21:31:00,68.8,66.7,29.65,SSW,192,2.0,3.0,93,0.13,,,0.35,Wunderground v.1.15,2013-05-23 01:31:00,
2013-05-22 21:36:00,68.5,66.4,29.65,SSW,192,1.0,3.0,93,0.06,,,0.35,Wunderground v.1.15,2013-05-23 01:36:00,
2013-05-22 21:41:00,68.2,66.4,29.65,SSW,213,0.0,1.0,94,0.04,,,0.35,Wunderground v.1.15,2013-05-23 01:41:00,
2013-05-22 21:46:00,68.0,66.2,29.65,SSW,213,0.0,1.0,94,0.00,,,0.35,Wunderground v.1.15,2013-05-23 01:46:00,
2013-05-22 21:51:00,67.9,66.1,29.66,SSW,213,0.0,0.0,94,0.00,,,0.35,Wunderground v.1.15,2013-05-23 01:51:00,
2013-05-22 21:56:00,67.7,66.2,29.66,SW,220,0.0,2.0,95,0.00,,,0.35,Wunderground v.1.15,2013-05-23 01:56:00,
2013-05-22 22:01:00,67.6,66.1,29.66,SW,223,2.0,2.0,95,0.00,,,0.35,Wunderground v.1.15,2013-05-23 02:01:00,
2013-05-22 22:06:00,67.5,66.3,29.66,West,269,2.0,4.0,96,0.00,,,0.35,Wunderground v.1.15,2013-05-23 02:06:00,
2013-05-22 22:11:00,67.5,66.3,29.66,SW,223,1.0,1.0,96,0.00,,,0.35,Wunderground v.1.15,2013-05-23 02:11:00,
2013-05-22 22:16:00,67.5,66.3,29.66,WSW,237,1.0,4.0,96,0.00,,,0.35,Wunderground v.1.15,2013-05-23 02:16:00,
2013-05-22 22:21:00,67.5,66.3,29.66,WSW,237,1.0,1.0,96,0.00,,,0.35,Wunderground v.1.15,2013-05-23 02:21:00,
2013-05-22 22:26:00,67.5,66.3,29.66,WSW,237,0.0,2.0,96,0.00,,,0.35,Wunderground v.1.15,2013-05-23 02:26:00,
2013-05-22 22:31:00,67.5,66.3,29.66,West,265,0.0,3.0,96,0.00,,,0.35,Wunderground v.1.15,2013-05-23 02:31:00,
2013-05-22 22:36:00,67.5,66.3,29.66,SE,130,2.0,4.0,96,0.00,,,0.35,Wunderground v.1.15,2013-05-23 02:36:00,
2013-05-22 22:41:00,67.5,66.3,29.66,SSW,210,0.0,1.0,96,0.00,,,0.35,Wunderground v.1.15,2013-05-23 02:41:00,
2013-05-22 22:46:00,67.5,66.3,29.66,West,263,0.0,4.0,96,0.00,,,0.35,Wunderground v.1.15,2013-05-23 02:46:00,
2013-05-22 22:51:00,67.5,66.3,29.66,WSW,239,0.0,1.0,96,0.00,,,0.35,Wunderground v.1.15,2013-05-23 02:51:00,
2013-05-22 22:56:00,67.4,66.2,29.67,WSW,240,0.0,4.0,96,0.00,,,0.35,Wunderground v.1.15,2013-05-23 02:56:00,
2013-05-22 23:01:00,67.4,66.2,29.67,South,180,0.0,0.0,96,0.00,,,0.35,Wunderground v.1.15,2013-05-23 03:01:00,
2013-05-22 23:06:00,67.3,66.1,29.66,South,180,0.0,1.0,96,0.00,,,0.35,Wunderground v.1.15,2013-05-23 03:06:00,
2013-05-22 23:11:00,67.2,66.0,29.66,SSW,210,0.0,0.0,96,0.00,,,0.35,Wunderground v.1.15,2013-05-23 03:11:00,
2013-05-22 23:16:00,67.2,66.0,29.66,SSW,209,0.0,0.0,96,0.00,,,0.35,Wunderground v.1.15,2013-05-23 03:16:00,
2013-05-22 23:21:00,67.1,65.9,29.67,SSW,209,2.0,2.0,96,0.00,,,0.35,Wunderground v.1.15,2013-05-23 03:21:00,
2013-05-22 23:26:00,67.0,65.8,29.67,SSW,204,0.0,2.0,96,0.00,,,0.35,Wunderground v.1.15,2013-05-23 03:26:00,
2013-05-22 23:31:00,67.0,65.8,29.67,SSW,204,0.0,0.0,96,0.00,,,0.35,Wunderground v.1.15,2013-05-23 03:31:00,
2013-05-22 23:36:00,66.9,65.7,29.66,SSW,204,0.0,1.0,96,0.00,,,0.35,Wunderground v.1.15,2013-05-23 03:36:00,
2013-05-22 23:41:00,66.8,65.6,29.66,SSW,204,0.0,0.0,96,0.00,,,0.35,Wunderground v.1.15,2013-05-23 03:41:00,
2013-05-22 23:46:00,66.7,65.5,29.67,SSW,204,0.0,0.0,96,0.00,,,0.35,Wunderground v.1.15,2013-05-23 03:46:00,
2013-05-22 23:51:00,66.6,65.4,29.67,SSW,204,0.0,0.0,96,0.00,,,0.35,Wunderground v.1.15,2013-05-23 03:51:00,
2013-05-22 23:56:00,66.5,65.3,29.67,SSW,204,0.0,0.0,96,0.00,,,0.35,Wunderground v.1.15,2013-05-23 03:56:00,